createdAt,value
2023-08-12T00:01:33.642Z,20.50
2023-08-12T00:03:35.620Z,20.50
2023-08-12T00:05:38.155Z,20.50
2023-08-12T00:07:43.738Z,20.50
2023-08-12T00:09:45.448Z,20.50
2023-08-12T00:11:47.856Z,20.50
2023-08-12T00:13:49.648Z,20.50
2023-08-12T00:15:51.615Z,20.50
2023-08-12T00:17:53.922Z,20.40
2023-08-12T00:19:55.782Z,20.40
2023-08-12T00:21:57.497Z,20.30
2023-08-12T00:23:59.210Z,20.30
2023-08-12T00:26:00.974Z,20.40
2023-08-12T00:28:02.790Z,20.40
2023-08-12T00:30:05.549Z,20.40
2023-08-12T00:32:09.306Z,20.40
2023-08-12T00:34:11.017Z,20.50
2023-08-12T00:36:12.748Z,20.50
2023-08-12T00:38:14.594Z,20.50
2023-08-12T00:40:16.368Z,20.50
2023-08-12T00:42:18.193Z,20.50
2023-08-12T00:44:20.234Z,20.50
2023-08-12T00:46:22.162Z,20.40
2023-08-12T00:48:24.400Z,20.50
2023-08-12T00:50:26.826Z,20.50
2023-08-12T00:52:28.900Z,20.50
2023-08-12T00:54:30.816Z,20.60
2023-08-12T00:56:33.139Z,20.60
2023-08-12T00:58:35.043Z,20.60
2023-08-12T01:00:36.859Z,20.60
2023-08-12T01:02:39.222Z,20.70
2023-08-12T01:04:41.353Z,20.80
2023-08-12T01:06:43.099Z,20.90
2023-08-12T01:08:45.676Z,20.90
2023-08-12T01:10:57.029Z,20.90
2023-08-12T01:13:07.678Z,20.90
2023-08-12T01:15:15.742Z,20.90
2023-08-12T01:17:17.755Z,20.80
2023-08-12T01:19:35.402Z,20.80
2023-08-12T01:21:42.055Z,20.80
2023-08-12T01:23:44.899Z,20.80
2023-08-12T01:25:46.596Z,20.80
2023-08-12T01:27:48.235Z,20.80
2023-08-12T01:29:52.715Z,20.80
2023-08-12T01:32:14.874Z,20.70
2023-08-12T01:34:38.739Z,20.70
2023-08-12T01:36:43.268Z,20.60
2023-08-12T01:38:45.600Z,20.50
2023-08-12T01:40:48.821Z,20.50
2023-08-12T01:42:51.807Z,20.50
2023-08-12T01:44:56.530Z,20.50
2023-08-12T01:46:58.372Z,20.50
2023-08-12T01:49:00.059Z,20.40
2023-08-12T01:51:01.982Z,20.50
2023-08-12T01:53:03.864Z,20.40
2023-08-12T01:55:05.885Z,20.40
2023-08-12T01:57:09.541Z,20.30
2023-08-12T01:59:11.666Z,20.20
2023-08-12T02:01:13.440Z,20.10
2023-08-12T02:03:15.232Z,20.10
2023-08-12T02:05:17.007Z,20.10
2023-08-12T02:07:18.817Z,20.10
2023-08-12T02:09:20.535Z,20.10
2023-08-12T02:11:22.492Z,20.10
2023-08-12T02:13:24.209Z,20.10
2023-08-12T02:15:26.048Z,20.00
2023-08-12T02:17:27.873Z,20.00
2023-08-12T02:19:29.644Z,20.10
2023-08-12T02:21:31.386Z,20.20
2023-08-12T02:23:33.131Z,20.20
2023-08-12T02:25:34.879Z,20.30
2023-08-12T02:27:36.645Z,20.40
2023-08-12T02:29:38.375Z,20.40
2023-08-12T02:31:40.126Z,20.40
2023-08-12T02:33:41.849Z,20.50
2023-08-12T02:35:43.845Z,20.50
2023-08-12T02:37:45.554Z,20.70
2023-08-12T02:39:47.219Z,20.70
2023-08-12T02:41:49.088Z,20.70
2023-08-12T02:43:50.844Z,20.70
2023-08-12T02:45:52.850Z,20.70
2023-08-12T02:47:54.865Z,20.70
2023-08-12T02:49:56.670Z,20.60
2023-08-12T02:51:58.415Z,20.60
2023-08-12T02:54:00.140Z,20.70
2023-08-12T02:56:01.834Z,20.70
2023-08-12T02:58:04.578Z,20.70
2023-08-12T03:00:06.981Z,20.60
2023-08-12T03:02:09.011Z,20.60
2023-08-12T03:04:10.748Z,20.60
2023-08-12T03:06:12.631Z,20.60
2023-08-12T03:08:14.667Z,20.60
2023-08-12T03:10:16.583Z,20.50
2023-08-12T03:12:18.348Z,20.50
2023-08-12T03:14:20.098Z,20.50
2023-08-12T03:16:21.969Z,20.50
2023-08-12T03:18:23.812Z,20.50
2023-08-12T03:20:25.599Z,20.50
2023-08-12T03:22:28.986Z,20.50
2023-08-12T03:24:30.760Z,20.50
2023-08-12T03:26:32.559Z,20.50
2023-08-12T03:28:34.468Z,20.50
2023-08-12T03:30:36.252Z,20.60
2023-08-12T03:32:37.995Z,20.60
2023-08-12T03:34:39.858Z,20.60
2023-08-12T03:36:42.261Z,20.60
2023-08-12T03:38:44.212Z,20.60
2023-08-12T03:40:46.092Z,20.70
2023-08-12T03:42:47.915Z,20.70
2023-08-12T03:44:49.632Z,20.70
2023-08-12T03:46:51.386Z,20.80
2023-08-12T03:48:53.232Z,20.80
2023-08-12T03:50:55.007Z,20.70
2023-08-12T03:52:56.687Z,20.70
2023-08-12T03:54:58.545Z,20.70
2023-08-12T03:57:00.270Z,20.70
2023-08-12T03:59:02.085Z,20.60
2023-08-12T04:01:03.879Z,20.60
2023-08-12T04:03:05.828Z,20.70
2023-08-12T04:05:08.274Z,20.70
2023-08-12T04:07:10.116Z,20.70
2023-08-12T04:09:12.128Z,20.80
2023-08-12T04:11:13.950Z,20.80
2023-08-12T04:13:16.213Z,20.90
2023-08-12T04:15:17.940Z,20.90
2023-08-12T04:17:19.925Z,20.90
2023-08-12T04:19:21.879Z,20.80
2023-08-12T04:21:23.631Z,20.80
2023-08-12T04:23:25.558Z,20.90
2023-08-12T04:25:27.348Z,20.90
2023-08-12T04:27:29.189Z,20.90
2023-08-12T04:29:30.925Z,20.90
2023-08-12T04:31:32.620Z,20.80
2023-08-12T04:33:34.697Z,20.80
2023-08-12T04:35:36.522Z,20.80
2023-08-12T04:37:38.376Z,20.70
2023-08-12T04:39:41.322Z,20.70
2023-08-12T04:41:43.208Z,20.60
2023-08-12T04:43:44.970Z,20.60
2023-08-12T04:45:47.975Z,20.50
2023-08-12T04:47:50.033Z,20.50
2023-08-12T04:49:51.792Z,20.50
2023-08-12T04:51:56.211Z,20.60
2023-08-12T04:53:58.291Z,20.60
2023-08-12T04:56:00.176Z,20.60
2023-08-12T04:58:03.862Z,20.60
2023-08-12T05:00:09.403Z,20.60
2023-08-12T05:02:11.126Z,20.60
2023-08-12T05:04:12.850Z,20.60
2023-08-12T05:06:14.575Z,20.60
2023-08-12T05:08:16.338Z,20.60
2023-08-12T05:10:18.916Z,20.60
2023-08-12T05:12:20.705Z,20.50
2023-08-12T05:14:22.469Z,20.50
2023-08-12T05:16:24.310Z,20.50
2023-08-12T05:18:27.448Z,20.50
2023-08-12T05:20:29.356Z,20.40
2023-08-12T05:22:31.065Z,20.40
2023-08-12T05:24:32.955Z,20.40
2023-08-12T05:26:35.245Z,20.40
2023-08-12T05:28:36.964Z,20.40
2023-08-12T05:30:39.764Z,20.30
2023-08-12T05:32:42.062Z,20.30
2023-08-12T05:34:43.858Z,20.30
2023-08-12T05:36:45.675Z,20.30
2023-08-12T05:38:47.519Z,20.30
2023-08-12T05:40:49.343Z,20.20
2023-08-12T05:42:51.108Z,20.10
2023-08-12T05:44:52.755Z,20.10
2023-08-12T05:46:54.599Z,20.10
2023-08-12T05:48:56.473Z,20.10
2023-08-12T05:50:58.249Z,20.10
2023-08-12T05:53:00.051Z,20.10
2023-08-12T05:55:01.840Z,20.10
2023-08-12T05:57:04.128Z,20.10
2023-08-12T05:59:05.889Z,20.10
2023-08-12T06:01:07.847Z,20.20
2023-08-12T06:03:09.665Z,20.30
2023-08-12T06:05:11.434Z,20.30
2023-08-12T06:07:13.324Z,20.30
2023-08-12T06:09:15.038Z,20.30
2023-08-12T06:11:16.867Z,20.30
2023-08-12T06:13:18.636Z,20.30
2023-08-12T06:15:20.480Z,20.40
2023-08-12T06:17:22.461Z,20.40
2023-08-12T06:19:24.339Z,20.60
2023-08-12T06:21:26.119Z,20.70
2023-08-12T06:23:28.016Z,20.70
2023-08-12T06:25:29.771Z,20.70
2023-08-12T06:27:31.584Z,20.80
2023-08-12T06:29:33.579Z,20.80
2023-08-12T06:31:35.337Z,20.90
2023-08-12T06:33:37.275Z,20.90
2023-08-12T06:35:40.983Z,21.00
2023-08-12T06:37:42.874Z,21.10
2023-08-12T06:39:44.630Z,21.20
2023-08-12T06:41:46.335Z,21.30
2023-08-12T06:43:48.328Z,21.50
2023-08-12T06:45:50.166Z,21.70
2023-08-12T06:47:52.000Z,21.80
2023-08-12T06:49:54.108Z,21.90
2023-08-12T06:51:55.879Z,22.10
2023-08-12T06:53:57.700Z,22.20
2023-08-12T06:55:59.450Z,22.30
2023-08-12T06:58:01.804Z,22.40
2023-08-12T07:00:04.290Z,22.40
2023-08-12T07:02:07.562Z,22.70
2023-08-12T07:04:09.276Z,22.90
2023-08-12T07:06:10.992Z,23.10
2023-08-12T07:08:12.726Z,23.30
2023-08-12T07:10:14.454Z,23.50
2023-08-12T07:12:16.200Z,23.50
2023-08-12T07:14:18.145Z,23.50
2023-08-12T07:16:20.082Z,24.50
2023-08-12T07:18:22.029Z,26.00
2023-08-12T07:20:23.736Z,27.30
2023-08-12T07:22:25.454Z,27.80
2023-08-12T07:24:27.242Z,28.80
2023-08-12T07:26:29.199Z,29.80
2023-08-12T07:28:30.928Z,29.50
2023-08-12T07:30:34.784Z,30.50
2023-08-12T07:32:38.563Z,31.10
2023-08-12T07:34:40.251Z,30.40
2023-08-12T07:36:42.316Z,29.90
2023-08-12T07:38:44.062Z,30.30
2023-08-12T07:40:45.818Z,31.10
2023-08-12T07:42:47.561Z,31.50
2023-08-12T07:44:49.534Z,32.40
2023-08-12T07:46:51.236Z,32.30
2023-08-12T07:48:53.235Z,32.20
2023-08-12T07:50:58.886Z,32.50
2023-08-12T07:53:00.681Z,32.70
2023-08-12T07:55:03.024Z,32.50
2023-08-12T07:57:04.950Z,33.20
2023-08-12T07:59:07.349Z,33.30
2023-08-12T08:01:10.451Z,33.60
2023-08-12T08:03:12.172Z,34.20
2023-08-12T08:05:13.938Z,34.10
2023-08-12T08:07:16.910Z,34.80
2023-08-12T08:09:18.678Z,34.40
2023-08-12T08:11:20.381Z,34.90
2023-08-12T08:13:22.325Z,34.90
2023-08-12T08:15:23.986Z,35.20
2023-08-12T08:17:25.786Z,35.10
2023-08-12T08:19:29.991Z,35.10
2023-08-12T08:21:32.104Z,34.70
2023-08-12T08:23:34.011Z,34.80
2023-08-12T08:25:36.025Z,35.20
2023-08-12T08:27:37.860Z,35.70
2023-08-12T08:29:39.773Z,35.60
2023-08-12T08:31:41.561Z,35.40
2023-08-12T08:33:45.254Z,34.00
2023-08-12T08:35:47.309Z,33.60
2023-08-12T08:37:49.150Z,33.30
2023-08-12T08:39:51.201Z,33.80
2023-08-12T08:41:55.328Z,33.90
2023-08-12T08:44:04.383Z,33.70
2023-08-12T08:46:07.655Z,34.00
2023-08-12T08:48:11.060Z,33.40
2023-08-12T08:50:13.997Z,32.10
2023-08-12T08:52:16.777Z,31.70
2023-08-12T08:54:19.709Z,31.70
2023-08-12T08:56:22.487Z,31.80
2023-08-12T08:58:26.044Z,31.70
2023-08-12T09:00:29.111Z,32.20
2023-08-12T09:02:31.803Z,32.50
2023-08-12T09:04:34.187Z,33.20
2023-08-12T09:06:39.055Z,34.20
2023-08-12T09:08:45.775Z,34.70
2023-08-12T09:10:48.301Z,34.60
2023-08-12T09:12:50.326Z,35.00
2023-08-12T09:14:52.098Z,34.90
2023-08-12T09:16:56.337Z,35.20
2023-08-12T09:18:59.599Z,35.90
2023-08-12T09:21:02.020Z,36.30
2023-08-12T09:23:04.417Z,37.10
2023-08-12T09:25:06.823Z,36.30
2023-08-12T09:27:08.669Z,35.70
2023-08-12T09:29:10.380Z,35.30
2023-08-12T09:31:27.646Z,35.40
2023-08-12T09:33:29.521Z,35.80
2023-08-12T09:35:36.263Z,35.90
2023-08-12T09:37:38.881Z,35.50
2023-08-12T09:39:41.404Z,35.70
2023-08-12T09:41:44.316Z,35.60
2023-08-12T09:43:46.066Z,35.50
2023-08-12T09:45:48.282Z,35.50
2023-08-12T09:47:50.289Z,35.10
2023-08-12T09:49:52.168Z,35.00
2023-08-12T09:51:54.258Z,35.10
2023-08-12T09:53:56.724Z,34.60
2023-08-12T09:56:08.924Z,33.70
2023-08-12T09:58:11.888Z,32.80
2023-08-12T10:00:18.444Z,33.00
2023-08-12T10:02:21.431Z,32.90
2023-08-12T10:04:25.576Z,32.90
2023-08-12T10:06:28.191Z,33.70
2023-08-12T10:08:30.549Z,34.60
2023-08-12T10:10:36.340Z,35.40
2023-08-12T10:12:38.509Z,36.10
2023-08-12T10:14:40.703Z,36.10
2023-08-12T10:16:47.536Z,35.10
2023-08-12T10:18:51.037Z,33.70
2023-08-12T10:20:53.661Z,32.90
2023-08-12T10:22:56.494Z,31.80
2023-08-12T10:25:03.396Z,31.10
2023-08-12T10:27:06.137Z,30.50
2023-08-12T10:29:08.699Z,29.60
2023-08-12T10:31:13.255Z,29.50
2023-08-12T10:33:18.587Z,29.10
2023-08-12T10:35:20.488Z,28.10
2023-08-12T10:37:23.253Z,27.60
2023-08-12T10:39:29.852Z,27.50
2023-08-12T10:41:37.070Z,27.60
2023-08-12T10:43:55.480Z,27.80
2023-08-12T10:45:58.525Z,28.00
2023-08-12T10:48:00.642Z,28.40
2023-08-12T10:50:03.167Z,28.90
2023-08-12T10:52:05.036Z,29.40
2023-08-12T10:54:32.207Z,29.60
2023-08-12T10:57:02.736Z,30.00
2023-08-12T10:59:04.599Z,30.40
2023-08-12T11:01:14.214Z,30.40
2023-08-12T11:03:16.149Z,30.20
2023-08-12T11:05:20.198Z,30.30
2023-08-12T11:07:27.971Z,30.10
2023-08-12T11:09:29.828Z,29.70
2023-08-12T11:11:31.602Z,29.60
2023-08-12T11:13:33.299Z,29.40
2023-08-12T11:15:39.711Z,29.30
2023-08-12T11:17:42.718Z,29.30
2023-08-12T11:19:44.664Z,29.30
2023-08-12T11:21:46.965Z,29.20
2023-08-12T11:23:48.765Z,29.40
2023-08-12T11:25:51.350Z,29.50
2023-08-12T11:27:53.413Z,30.20
2023-08-12T11:29:55.231Z,31.40
2023-08-12T11:31:56.924Z,32.30
2023-08-12T11:33:59.299Z,33.00
2023-08-12T11:36:01.763Z,33.10
2023-08-12T11:38:03.668Z,33.40
2023-08-12T11:40:07.246Z,33.70
2023-08-12T11:42:09.042Z,34.00
2023-08-12T11:44:17.096Z,34.30
2023-08-12T11:46:18.886Z,34.20
2023-08-12T11:48:21.843Z,33.80
2023-08-12T11:50:28.300Z,33.30
2023-08-12T11:52:30.523Z,33.30
2023-08-12T11:54:32.467Z,33.00
2023-08-12T11:56:34.555Z,33.00
2023-08-12T11:58:51.674Z,33.10
2023-08-12T12:00:55.326Z,33.30
2023-08-12T12:02:57.953Z,33.00
2023-08-12T12:04:59.784Z,32.20
2023-08-12T12:07:07.173Z,31.60
2023-08-12T12:09:13.785Z,31.20
2023-08-12T12:11:15.623Z,31.10
2023-08-12T12:13:18.869Z,31.10
2023-08-12T12:15:20.558Z,30.80
2023-08-12T12:17:25.866Z,30.40
2023-08-12T12:19:28.487Z,29.80
2023-08-12T12:21:30.173Z,29.40
2023-08-12T12:23:32.375Z,28.40
2023-08-12T12:25:35.313Z,27.90
2023-08-12T12:27:39.688Z,27.30
2023-08-12T12:29:41.779Z,26.50
2023-08-12T12:31:43.792Z,25.80
2023-08-12T12:33:45.513Z,25.30
2023-08-12T12:35:56.620Z,24.90
2023-08-12T12:38:00.894Z,24.50
2023-08-12T12:40:04.266Z,24.00
2023-08-12T12:42:06.225Z,23.40
2023-08-12T12:44:08.029Z,22.80
2023-08-12T12:46:09.888Z,22.30
2023-08-12T12:48:11.965Z,21.90
2023-08-12T12:50:13.833Z,21.70
2023-08-12T12:52:15.772Z,21.50
2023-08-12T12:54:18.449Z,21.30
2023-08-12T12:56:20.184Z,21.20
2023-08-12T12:58:24.383Z,21.00
2023-08-12T13:00:26.109Z,21.00
2023-08-12T13:02:27.985Z,20.90
2023-08-12T13:04:29.784Z,20.80
2023-08-12T13:06:31.564Z,20.60
2023-08-12T13:08:33.572Z,20.50
2023-08-12T13:10:35.363Z,20.50
2023-08-12T13:12:37.040Z,20.40
2023-08-12T13:14:38.786Z,20.30
2023-08-12T13:16:40.561Z,20.20
2023-08-12T13:18:42.315Z,20.10
2023-08-12T13:20:44.267Z,20.00
2023-08-12T13:22:46.027Z,20.10
2023-08-12T13:24:47.688Z,20.10
2023-08-12T13:26:49.624Z,20.20
2023-08-12T13:28:51.349Z,20.10
2023-08-12T13:30:53.223Z,20.10
2023-08-12T13:32:55.655Z,20.10
2023-08-12T13:34:57.344Z,20.20
2023-08-12T13:36:59.025Z,20.20
2023-08-12T13:39:01.476Z,20.20
2023-08-12T13:41:03.271Z,20.30
2023-08-12T13:43:05.128Z,20.30
2023-08-12T13:45:07.231Z,20.40
2023-08-12T13:47:08.866Z,20.30
2023-08-12T13:49:10.627Z,20.30
2023-08-12T13:51:12.469Z,20.30
2023-08-12T13:53:14.180Z,20.30
2023-08-12T13:55:15.923Z,20.30
2023-08-12T13:57:17.637Z,20.40
2023-08-12T13:59:19.415Z,20.30
2023-08-12T14:01:21.165Z,20.40
2023-08-12T14:03:22.972Z,20.40
2023-08-12T14:05:25.233Z,20.50
2023-08-12T14:07:27.166Z,20.80
2023-08-12T14:09:29.192Z,21.00
2023-08-12T14:11:30.973Z,21.20
2023-08-12T14:13:32.765Z,21.90
2023-08-12T14:15:34.584Z,22.80
2023-08-12T14:17:36.451Z,23.50
2023-08-12T14:19:38.200Z,24.30
2023-08-12T14:21:39.870Z,24.60
2023-08-12T14:23:41.635Z,24.90
2023-08-12T14:25:43.555Z,25.30
2023-08-12T14:27:45.399Z,26.40
2023-08-12T14:29:47.670Z,27.30
2023-08-12T14:31:49.608Z,27.70
2023-08-12T14:33:51.613Z,28.20
2023-08-12T14:35:55.446Z,28.60
2023-08-12T14:37:57.225Z,28.50
2023-08-12T14:39:58.957Z,28.70
2023-08-12T14:42:00.756Z,28.60
2023-08-12T14:44:02.932Z,28.50
2023-08-12T14:46:04.833Z,28.40
2023-08-12T14:48:07.132Z,28.60
2023-08-12T14:50:09.786Z,28.50
2023-08-12T14:52:19.257Z,28.40
2023-08-12T14:54:20.972Z,28.40
2023-08-12T14:56:23.201Z,28.80
2023-08-12T14:58:24.935Z,29.10
2023-08-12T15:00:26.674Z,29.20
2023-08-12T15:02:29.416Z,29.20
2023-08-12T15:04:34.403Z,29.00
2023-08-12T15:06:36.095Z,28.50
2023-08-12T15:08:37.803Z,27.60
2023-08-12T15:10:39.566Z,28.00
2023-08-12T15:12:41.454Z,27.90
2023-08-12T15:14:43.304Z,27.50
2023-08-12T15:16:45.042Z,27.30
2023-08-12T15:18:46.781Z,27.70
2023-08-12T15:20:48.555Z,27.30
2023-08-12T15:22:50.819Z,27.60
2023-08-12T15:24:54.023Z,27.90
2023-08-12T15:26:55.960Z,28.20
2023-08-12T15:28:57.688Z,28.30
2023-08-12T15:30:59.498Z,28.30
2023-08-12T15:33:01.269Z,28.10
2023-08-12T15:35:03.278Z,27.40
2023-08-12T15:37:05.025Z,27.10
2023-08-12T15:39:06.730Z,27.00
2023-08-12T15:41:14.537Z,26.90
2023-08-12T15:43:16.233Z,26.80
2023-08-12T15:45:18.106Z,26.30
2023-08-12T15:47:19.847Z,25.70
2023-08-12T15:49:21.768Z,25.10
2023-08-12T15:51:23.566Z,24.80
2023-08-12T15:53:25.389Z,24.50
2023-08-12T15:55:27.114Z,24.20
2023-08-12T15:57:28.846Z,24.10
2023-08-12T15:59:30.726Z,23.80
2023-08-12T16:01:33.327Z,23.70
2023-08-12T16:03:35.234Z,23.50
2023-08-12T16:05:37.326Z,23.40
2023-08-12T16:07:39.105Z,23.30
2023-08-12T16:09:40.867Z,23.30
2023-08-12T16:11:42.646Z,23.30
2023-08-12T16:13:44.874Z,23.30
2023-08-12T16:15:46.766Z,23.30
2023-08-12T16:17:48.685Z,23.30
2023-08-12T16:19:50.629Z,23.30
2023-08-12T16:21:52.449Z,23.30
2023-08-12T16:23:54.134Z,23.20
2023-08-12T16:25:55.804Z,23.20
2023-08-12T16:27:57.765Z,23.20
2023-08-12T16:29:59.447Z,23.10
2023-08-12T16:32:01.214Z,23.10
2023-08-12T16:34:03.226Z,23.00
2023-08-12T16:36:05.206Z,22.70
2023-08-12T16:38:07.023Z,22.50
2023-08-12T16:40:09.972Z,22.20
2023-08-12T16:42:13.003Z,22.00
2023-08-12T16:44:14.915Z,21.80
2023-08-12T16:46:16.728Z,21.60
2023-08-12T16:48:19.347Z,21.50
2023-08-12T16:50:21.277Z,21.40
2023-08-12T16:52:22.965Z,21.30
2023-08-12T16:54:24.661Z,21.20
2023-08-12T16:56:26.395Z,21.10
2023-08-12T16:58:28.195Z,21.10
2023-08-12T17:00:29.838Z,21.00
2023-08-12T17:02:31.886Z,21.00
2023-08-12T17:04:33.628Z,21.00
2023-08-12T17:06:35.358Z,21.00
2023-08-12T17:08:37.065Z,21.00
2023-08-12T17:10:39.742Z,20.90
2023-08-12T17:12:41.650Z,20.90
2023-08-12T17:14:43.419Z,20.90
2023-08-12T17:16:45.305Z,20.90
2023-08-12T17:18:47.086Z,20.90
2023-08-12T17:20:48.888Z,20.90
2023-08-12T17:22:50.596Z,20.90
2023-08-12T17:24:52.330Z,21.00
2023-08-12T17:26:54.062Z,21.00
2023-08-12T17:28:55.896Z,21.10
2023-08-12T17:30:57.797Z,21.10
2023-08-12T17:32:59.484Z,21.20
2023-08-12T17:35:01.475Z,21.50
2023-08-12T17:37:04.008Z,21.60
2023-08-12T17:39:05.875Z,21.80
2023-08-12T17:41:07.691Z,22.00
2023-08-12T17:43:09.607Z,22.10
2023-08-12T17:45:11.516Z,22.20
2023-08-12T17:47:13.646Z,22.10
2023-08-12T17:49:15.854Z,22.00
2023-08-12T17:51:18.364Z,21.90
2023-08-12T17:53:20.314Z,21.80
2023-08-12T17:55:22.270Z,21.60
2023-08-12T17:57:23.977Z,21.40
2023-08-12T17:59:25.772Z,21.30
2023-08-12T18:01:27.880Z,21.20
2023-08-12T18:03:29.714Z,21.00
2023-08-12T18:05:31.599Z,20.90
2023-08-12T18:07:33.328Z,20.80
2023-08-12T18:09:35.100Z,20.80
2023-08-12T18:11:36.861Z,20.80
2023-08-12T18:13:38.769Z,20.70
2023-08-12T18:15:40.706Z,20.70
2023-08-12T18:17:42.488Z,20.60
2023-08-12T18:19:44.236Z,20.60
2023-08-12T18:21:45.959Z,20.60
2023-08-12T18:23:47.972Z,20.60
2023-08-12T18:25:49.813Z,20.60
2023-08-12T18:27:51.752Z,20.50
2023-08-12T18:29:53.607Z,20.50
2023-08-12T18:31:55.325Z,20.40
2023-08-12T18:33:57.053Z,20.30
2023-08-12T18:35:58.801Z,20.20
2023-08-12T18:38:00.651Z,20.10
2023-08-12T18:40:02.426Z,20.00
2023-08-12T18:42:04.324Z,20.00
2023-08-12T18:44:06.122Z,19.90
2023-08-12T18:46:07.922Z,19.90
2023-08-12T18:48:09.811Z,19.80
2023-08-12T18:50:11.712Z,19.70
2023-08-12T18:52:15.005Z,19.70
2023-08-12T18:54:16.992Z,19.70
2023-08-12T18:56:18.709Z,19.60
2023-08-12T18:58:20.396Z,19.60
2023-08-12T19:00:22.386Z,19.50
2023-08-12T19:02:24.143Z,19.50
2023-08-12T19:04:26.804Z,19.40
2023-08-12T19:06:28.508Z,19.40
2023-08-12T19:08:30.274Z,19.30
2023-08-12T19:10:32.050Z,19.40
2023-08-12T19:12:33.895Z,19.40
2023-08-12T19:14:35.634Z,19.30
2023-08-12T19:16:37.524Z,19.30
2023-08-12T19:18:39.201Z,19.30
2023-08-12T19:20:41.310Z,19.30
2023-08-12T19:22:43.115Z,19.30
2023-08-12T19:24:44.785Z,19.30
2023-08-12T19:26:46.473Z,19.30
2023-08-12T19:28:48.186Z,19.30
2023-08-12T19:30:50.787Z,19.30
2023-08-12T19:32:54.124Z,19.30
2023-08-12T19:34:55.921Z,19.30
2023-08-12T19:36:57.719Z,19.30
2023-08-12T19:38:59.539Z,19.30
2023-08-12T19:41:03.920Z,19.40
2023-08-12T19:43:05.703Z,19.50
2023-08-12T19:45:08.056Z,19.50
2023-08-12T19:47:09.765Z,19.60
2023-08-12T19:49:11.613Z,19.60
2023-08-12T19:51:13.290Z,19.60
2023-08-12T19:53:15.048Z,19.60
2023-08-12T19:55:17.163Z,19.70
2023-08-12T19:57:18.878Z,19.70
2023-08-12T19:59:20.567Z,19.70
2023-08-12T20:01:22.259Z,19.80
2023-08-12T20:03:24.443Z,19.80
2023-08-12T20:05:28.587Z,19.80
2023-08-12T20:07:30.260Z,19.80
2023-08-12T20:09:31.969Z,19.80
2023-08-12T20:11:33.804Z,19.80
2023-08-12T20:13:35.725Z,19.80
2023-08-12T20:15:37.524Z,19.80
2023-08-12T20:17:40.163Z,19.80
2023-08-12T20:19:41.971Z,19.80
2023-08-12T20:21:43.738Z,19.80
2023-08-12T20:23:45.589Z,19.80
2023-08-12T20:25:47.401Z,19.90
2023-08-12T20:27:49.089Z,19.80
2023-08-12T20:29:50.769Z,19.80
2023-08-12T20:31:52.462Z,19.80
2023-08-12T20:33:54.201Z,19.80
2023-08-12T20:35:55.960Z,19.80
2023-08-12T20:37:57.736Z,19.80
2023-08-12T20:39:59.486Z,19.80
2023-08-12T20:42:01.264Z,19.80
2023-08-12T20:44:03.638Z,19.90
2023-08-12T20:46:06.226Z,19.90
2023-08-12T20:48:09.110Z,19.90
2023-08-12T20:50:11.078Z,19.90
2023-08-12T20:52:15.180Z,19.90
2023-08-12T20:54:16.952Z,19.90
2023-08-12T20:56:18.895Z,19.90
2023-08-12T20:58:20.580Z,19.80
2023-08-12T21:00:22.367Z,19.80
2023-08-12T21:02:24.328Z,19.80
2023-08-12T21:04:26.209Z,19.80
2023-08-12T21:06:27.945Z,19.70
2023-08-12T21:08:29.777Z,19.70
2023-08-12T21:10:31.797Z,19.70
2023-08-12T21:12:33.469Z,19.70
2023-08-12T21:14:35.192Z,19.60
2023-08-12T21:16:37.102Z,19.60
2023-08-12T21:18:38.972Z,19.60
2023-08-12T21:20:41.407Z,19.60
2023-08-12T21:22:45.736Z,19.50
2023-08-12T21:24:48.408Z,19.50
2023-08-12T21:26:51.278Z,19.50
2023-08-12T21:28:53.133Z,19.50
2023-08-12T21:30:55.025Z,19.50
2023-08-12T21:32:56.943Z,19.40
2023-08-12T21:34:59.012Z,19.30
2023-08-12T21:37:00.797Z,19.30
2023-08-12T21:39:05.292Z,19.20
2023-08-12T21:41:07.119Z,19.10
2023-08-12T21:43:09.015Z,19.10
2023-08-12T21:45:11.236Z,19.00
2023-08-12T21:47:12.974Z,19.10
2023-08-12T21:49:14.648Z,19.10
2023-08-12T21:51:16.333Z,19.20
2023-08-12T21:53:18.041Z,19.20
2023-08-12T21:55:19.825Z,19.30
2023-08-12T21:57:21.541Z,19.40
2023-08-12T21:59:23.315Z,19.40
2023-08-12T22:01:25.070Z,19.50
2023-08-12T22:03:26.938Z,19.50
2023-08-12T22:05:28.718Z,19.50
2023-08-12T22:07:30.584Z,19.60
2023-08-12T22:09:35.188Z,19.60
2023-08-12T22:11:36.918Z,19.50
2023-08-12T22:13:38.642Z,19.50
2023-08-12T22:15:40.484Z,19.50
2023-08-12T22:17:43.416Z,19.50
2023-08-12T22:19:48.856Z,19.50
2023-08-12T22:21:50.654Z,19.60
2023-08-12T22:23:52.915Z,19.50
2023-08-12T22:25:54.720Z,19.50
2023-08-12T22:27:58.113Z,19.40
2023-08-12T22:29:59.844Z,19.30
2023-08-12T22:32:01.504Z,19.30
2023-08-12T22:34:05.580Z,19.20
2023-08-12T22:36:09.847Z,19.20
2023-08-12T22:38:11.879Z,19.10
2023-08-12T22:40:13.698Z,19.10
2023-08-12T22:42:15.607Z,19.10
2023-08-12T22:44:17.693Z,19.20
2023-08-12T22:46:19.443Z,19.30
2023-08-12T22:48:21.202Z,19.30
2023-08-12T22:50:22.982Z,19.40
2023-08-12T22:52:24.671Z,19.40
2023-08-12T22:54:26.471Z,19.40
2023-08-12T22:56:28.181Z,19.40
2023-08-12T22:58:29.900Z,19.40
2023-08-12T23:00:31.605Z,19.40
2023-08-12T23:02:33.497Z,19.40
2023-08-12T23:04:35.287Z,19.40
2023-08-12T23:06:36.982Z,19.40
2023-08-12T23:08:38.657Z,19.40
2023-08-12T23:10:40.484Z,19.30
2023-08-12T23:12:42.380Z,19.30
2023-08-12T23:14:44.269Z,19.20
2023-08-12T23:16:46.011Z,19.10
2023-08-12T23:18:47.667Z,19.20
2023-08-12T23:20:49.322Z,19.10
2023-08-12T23:22:51.141Z,19.10
2023-08-12T23:24:52.969Z,19.10
2023-08-12T23:26:54.724Z,19.10
2023-08-12T23:28:56.446Z,19.00
2023-08-12T23:30:58.164Z,19.10
2023-08-12T23:32:59.955Z,19.10
2023-08-12T23:35:01.877Z,19.10
2023-08-12T23:37:03.706Z,19.00
2023-08-12T23:39:05.729Z,19.00
2023-08-12T23:41:07.475Z,19.00
2023-08-12T23:43:09.490Z,19.10
2023-08-12T23:45:11.955Z,19.10
2023-08-12T23:47:13.677Z,19.10
2023-08-12T23:49:15.541Z,19.10
2023-08-12T23:51:17.236Z,19.10
2023-08-12T23:53:18.960Z,19.10
2023-08-12T23:55:20.796Z,19.10
2023-08-12T23:57:22.501Z,19.00
2023-08-12T23:59:24.224Z,19.00
